Latest Coastal Weather Observations for Shark Bay Airport

IDW60701

Issued at 4:35 am WST Tuesday 29 July 2014 (issued every 10 minutes, with the page automatically refreshed every 10 minutes)

About coastal observations | Map of coastal stations | Coastal observations for WA | Marine services | Other Formats
Station Details ID: 006105 Name: SHARK BAY AIRPORT Lat: -25.89 Lon: 113.58 Height: 33.8 m
Data from the previous 72 hours. | See also: Recent months for locations in Western Australia
Date/Time
WST
Temp

°C
Wind Pressure Rain
since 9am
mm
Weather Cloud Vis
km
Sea
Height
m
Swell
Dir
 
Speed
knots
Gust
knots
hPa Trend Height
m
Period
s
Dir
29/04:30am 12.8 SE 9 11 1022.4 - 0.0 - - - - - - -
29/04:00am 12.9 SSE 9 12 1022.4 - 0.0 - - - - - - -
29/03:30am 13.5 SSE 11 15 1022.4 - 0.0 - - - - - - -
29/03:00am 13.4 SSE 10 15 1022.5 - 0.0 - - - - - - -
29/02:30am 13.5 SSE 10 13 1022.6 - 0.0 - - - - - - -
29/02:00am 13.0 SE 8 11 1023.0 - 0.0 - - - - - - -
29/01:30am 13.2 SSE 8 10 1023.2 - 0.0 - - - - - - -
29/01:00am 13.9 SE 9 11 1023.2 - 0.0 - - - - - - -
29/12:30am 14.0 SSE 9 13 1023.5 - 0.0 - - - - - - -
29/12:00am 13.9 SSE 9 12 1023.6 - 0.0 - - - - - - -
 
Date/Time
WST
Temp

°C
Wind Pressure Rain
since 9am
mm
Weather Cloud Vis
km
Sea
Height
m
Swell
Dir
 
Speed
knots
Gust
knots
hPa Trend Height
m
Period
s
Dir
28/11:30pm 13.8 SSE 8 10 1023.7 - 0.0 - - - - - - -
28/11:00pm 14.0 SSE 8 11 1023.8 - 0.0 - - - - - - -
28/10:30pm 14.2 S 8 11 1023.9 - 0.0 - - - - - - -
28/10:00pm 13.8 SSE 7 8 1023.8 - 0.0 - - - - - - -
28/09:30pm 14.5 S 7 9 1023.8 - 0.0 - - - - - - -
28/09:00pm 15.1 S 8 10 1023.6 - 0.0 - - - - - - -
28/08:30pm 15.2 S 7 9 1023.4 - 0.0 - - - - - - -
28/08:00pm 15.5 S 8 10 1023.3 - 0.0 - - - - - - -
28/07:30pm 15.9 S 8 10 1023.2 - 0.0 - - - - - - -
28/07:00pm 16.2 S 7 9 1022.9 - 0.0 - - - - - - -
28/06:30pm 17.2 S 9 12 1022.6 - 0.0 - - - - - - -
28/06:00pm 18.4 S 9 13 1022.5 - 0.0 - - - - - - -
28/05:30pm 19.8 S 10 14 1022.2 - 0.0 - - - - - - -
28/05:00pm 20.9 S 10 16 1022.0 - 0.0 - - - - - - -
28/04:30pm 22.0 S 11 14 1021.9 - 0.0 - - - - - - -
28/04:00pm 22.3 S 11 16 1021.9 - 0.0 - - - - - - -
28/03:30pm 22.2 S 11 15 1021.9 - 0.0 - - - - - - -
28/03:00pm 22.7 SSE 9 14 1022.1 - 0.0 - - - - - - -
28/02:30pm 22.5 SSE 11 15 1022.2 - 0.0 - - - - - - -
28/02:00pm 22.2 SE 10 14 1022.5 - 0.0 - - - - - - -
28/01:30pm 22.5 SSE 9 14 1022.9 - 0.0 - - - - - - -
28/01:00pm 21.8 SE 11 14 1023.3 - 0.0 - - - - - - -
28/12:30pm 21.9 SE 11 15 1023.7 - 0.0 - - - - - - -
28/12:00pm 20.9 SE 12 16 1023.9 - 0.0 - - - - - - -
28/11:30am 20.5 SE 13 18 1024.5 - 0.0 - - - - - - -
28/11:00am 19.7 SE 12 16 1024.9 - 0.0 - - - - - - -
28/10:30am 19.4 ESE 13 17 1025.3 - 0.0 - - - - - - -
28/10:00am 19.4 ESE 12 16 1025.4 - 0.0 - - - - - - -
28/09:30am 18.4 ESE 12 16 1025.5 - 0.0 - - - - - - -
28/09:00am 17.7 ESE 11 15 1025.4 - 0.2 - - - - - - -
28/08:30am 16.3 SE 9 12 1025.2 - 0.2 - - - - - - -
28/08:00am 15.0 SE 8 11 1024.8 - 0.2 - - - - - - -
28/07:30am 13.1 SE 7 8 1024.6 - 0.2 - - - - - - -
28/07:00am 13.4 SE 7 9 1024.1 - 0.2 - - - - - - -
28/06:30am 14.1 SE 8 11 1023.9 - 0.2 - - - - - - -
28/06:00am 14.3 SE 9 12 1023.7 - 0.2 - - - - - - -
28/05:30am 14.3 SE 8 11 1023.7 - 0.2 - - - - - - -
28/05:00am 14.2 SE 7 9 1023.5 - 0.2 - - - - - - -
28/04:30am 13.6 SE 7 10 1023.4 - 0.2 - - - - - - -
28/04:00am 13.2 SE 7 9 1023.1 - 0.2 - - - - - - -
28/03:30am 12.9 SE 7 10 1023.3 - 0.2 - - - - - - -
28/03:00am 12.6 SSE 8 10 1023.3 - 0.2 - - - - - - -
28/02:30am 12.4 SSE 7 9 1023.4 - 0.2 - - - - - - -
28/02:00am 12.6 SSE 7 8 1023.5 - 0.2 - - - - - - -
28/01:30am 13.0 SSE 7 9 1023.6 - 0.2 - - - - - - -
28/01:00am 13.4 SSE 6 8 1023.7 - 0.2 - - - - - - -
28/12:30am 14.0 SSE 8 10 1023.7 - 0.2 - - - - - - -
28/12:00am 14.0 SSE 7 9 1023.6 - 0.2 - - - - - - -
 
Date/Time
WST
Temp

°C
Wind Pressure Rain
since 9am
mm
Weather Cloud Vis
km
Sea
Height
m
Swell
Dir
 
Speed
knots
Gust
knots
hPa Trend Height
m
Period
s
Dir
27/11:30pm 13.5 SSE 7 9 1023.7 - 0.2 - - - - - - -
27/11:00pm 13.3 S 7 8 1023.7 - 0.2 - - - - - - -
27/10:30pm 13.8 S 5 6 1023.7 - 0.2 - - - - - - -
27/10:00pm 14.4 S 7 9 1023.5 - 0.2 - - - - - - -
27/09:30pm 14.9 S 7 9 1023.4 - 0.2 - - - - - - -
27/09:00pm 15.3 S 8 10 1023.4 - 0.2 - - - - - - -
27/08:30pm 15.6 S 8 10 1023.4 - 0.2 - - - - - - -
27/08:00pm 16.1 S 9 11 1023.3 - 0.2 - - - - - - -
27/07:30pm 16.3 S 8 11 1023.3 - 0.2 - - - - - - -
27/07:00pm 16.9 S 9 12 1022.8 - 0.2 - - - - - - -
27/06:30pm 17.5 S 8 11 1022.5 - 0.2 - - - - - - -
27/06:00pm 18.3 S 9 13 1022.2 - 0.2 - - - - - - -
27/05:30pm 19.2 S 8 11 1021.9 - 0.2 - - - - - - -
27/05:00pm 20.2 S 9 11 1021.7 - 0.2 - - - - - - -
27/04:30pm 20.9 SSW 11 14 1021.5 - 0.2 - - - - - - -
27/04:00pm 21.2 SSW 11 15 1021.4 - 0.2 - - - - - - -
27/03:30pm 21.7 SSW 11 15 1021.4 - 0.2 - - - - - - -
27/03:00pm 21.6 S 8 11 1021.3 - 0.2 - - - - - - -
27/02:30pm 20.9 SSE 7 11 1021.3 - 0.2 - - - - - - -
27/02:00pm 21.0 SSE 8 11 1021.3 - 0.2 - - - - - - -
27/01:30pm 20.9 ESE 10 13 1021.4 - 0.2 - - - - - - -
27/01:00pm 20.4 ESE 10 16 1021.7 - 0.2 - - - - - - -
27/12:30pm 20.9 ESE 10 15 1022.3 - 0.2 - - - - - - -
27/12:00pm 19.6 SE 12 17 1022.8 - 0.2 - - - - - - -
27/11:30am 19.2 SE 13 17 1023.4 - 0.2 - - - - - - -
27/11:00am 19.3 SE 11 15 1023.8 - 0.2 - - - - - - -
27/10:30am 18.5 SE 10 14 1024.1 - 0.2 - - - - - - -
27/10:00am 17.2 SE 12 16 1024.0 - 0.2 - - - - - - -
27/09:30am 16.6 SE 10 16 1024.1 - 0.0 - - - - - - -
27/09:00am 16.8 SSE 9 12 1023.8 - 0.0 - - - - - - -
27/08:30am 16.8 SE 8 13 1023.5 - 0.0 - - - - - - -
27/08:00am 16.4 SE 7 10 1023.0 - 0.0 - - - - - - -
27/07:30am 15.5 SSE 4 5 1022.6 - 0.0 - - - - - - -
27/07:00am 16.1 S 6 9 1022.2 - 0.0 - - - - - - -
27/06:30am 16.1 SSW 7 9 1021.9 - 0.0 - - - - - - -
27/06:00am 14.9 WSW 5 5 1021.8 - 0.0 - - - - - - -
27/05:30am 13.5 SE 1 4 1021.6 - 0.0 - - - - - - -
27/05:00am 12.1 E 4 4 1021.3 - 0.0 - - - - - - -
27/04:30am 11.8 SSE 5 5 1021.3 - 0.0 - - - - - - -
27/04:00am 12.4 SSW 3 4 1021.4 - 0.0 - - - - - - -
27/03:30am 13.6 WNW 3 4 1021.4 - 0.0 - - - - - - -
27/03:00am 13.9 SW 4 5 1021.3 - 0.0 - - - - - - -
27/02:30am 13.1 WSW 4 5 1021.5 - 0.0 - - - - - - -
27/02:00am 13.0 WSW 6 7 1021.4 - 0.0 - - - - - - -
27/01:30am 12.9 W 5 5 1021.4 - 0.0 - - - - - - -
27/01:00am 11.5 WSW 2 3 1021.4 - 0.0 - - - - - - -
27/12:30am 12.4 W 3 4 1021.6 - 0.0 - - - - - - -
27/12:00am 13.7 W 6 6 1021.6 - 0.0 - - - - - - -
 
Date/Time
WST
Temp

°C
Wind Pressure Rain
since 9am
mm
Weather Cloud Vis
km
Sea
Height
m
Swell
Dir
 
Speed
knots
Gust
knots
hPa Trend Height
m
Period
s
Dir
26/11:30pm 13.9 W 5 6 1021.7 - 0.0 - - - - - - -
26/11:00pm 14.2 W 4 5 1021.8 - 0.0 - - - - - - -
26/10:30pm 14.1 W 4 4 1022.0 - 0.0 - - - - - - -
26/10:00pm 14.1 WNW 4 5 1022.0 - 0.0 - - - - - - -
26/09:30pm 14.4 NNW 4 4 1021.8 - 0.0 - - - - - - -
26/09:00pm 15.2 CALM 0 0 1021.9 - 0.0 - - - - - - -
26/08:30pm 15.6 CALM 0 0 1021.7 - 0.0 - - - - - - -
26/08:00pm 16.4 WSW 4 5 1021.6 - 0.0 - - - - - - -
26/07:30pm 16.8 W 3 4 1021.4 - 0.0 - - - - - - -
26/07:00pm 17.1 WNW 3 4 1021.2 - 0.0 - - - - - - -
26/06:30pm 18.0 WNW 6 7 1020.8 - 0.0 - - - - - - -
26/06:00pm 19.2 WNW 5 6 1020.5 - 0.0 - - - - - - -
26/05:30pm 20.8 WNW 8 11 1020.3 - 0.0 - - - - - - -
26/05:00pm 22.1 NW 11 14 1020.1 - 0.0 - - - - - - -
26/04:30pm 22.9 WNW 11 15 1020.0 - 0.0 - - - - - - -
26/04:00pm 23.9 WNW 11 15 1019.8 - 0.0 - - - - - - -
26/03:30pm 24.1 WNW 12 16 1019.6 - 0.0 - - - - - - -
26/03:00pm 24.8 WNW 13 16 1019.6 - 0.0 - - - - - - -
26/02:30pm 24.5 WNW 14 17 1019.8 - 0.0 - - - - - - -
26/02:00pm 25.0 WNW 13 17 1020.1 - 0.0 - - - - - - -
26/01:30pm 24.6 WNW 11 17 1020.6 - 0.0 - - - - - - -
26/01:00pm 24.3 WNW 11 17 1021.0 - 0.0 - - - - - - -
26/12:30pm 24.0 WNW 11 15 1021.6 - 0.0 - - - - - - -
26/12:00pm 22.5 W 10 15 1021.9 - 0.0 - - - - - - -
26/11:30am 22.4 W 11 14 1022.2 - 0.0 - - - - - - -
26/11:00am 21.9 WNW 8 11 1022.4 - 0.0 - - - - - - -
26/10:30am 21.1 WNW 8 10 1022.5 - 0.0 - - - - - - -
26/10:00am 21.2 NNW 7 10 1022.3 - 0.0 - - - - - - -
26/09:30am 20.8 N 7 9 1022.1 - 0.0 - - - - - - -
26/09:00am 19.1 NNE 8 10 1021.7 - 0.2 - - - - - - -
26/08:30am 17.2 NE 6 8 1021.4 - 0.2 - - - - - - -
26/08:24am 16.3 NE 6 8 1021.3 - 0.2 - - - - - - -
26/08:00am 11.3 NNE 5 6 1021.0 - 0.2 - - - - - - -
26/07:30am 9.4 NE 5 6 1020.7 - 0.2 - - - - - - -
26/07:00am 9.3 NE 5 7 1020.7 - 0.2 - - - - - - -
26/06:30am 9.8 N 6 7 1020.2 - 0.2 - - - - - - -
26/06:00am 8.8 ENE 5 5 1019.9 - 0.2 - - - - - - -
26/05:30am 8.8 NNE 4 5 1019.8 - 0.2 - - - - - - -
26/05:00am 8.3 NNE 3 4 1019.8 - 0.2 - - - - - - -

Other Formats:

Comma delimited format used in spreadsheet applications
http://www.bom.gov.au/fwo/IDW60701/IDW60701.95402.axf

JavaScript Object Notation format (JSON) in row-major order
http://www.bom.gov.au/fwo/IDW60701/IDW60701.95402.json